Time;durP1;ratioP1;P1;durP2;ratioP2;P2;SDS_P1;SDS_P2;PMS_P1;PMS_P2;Temp;Humidity;BMP_temperature;BMP_pressure;BME280_temperature;BME280_humidity;BME280_pressure;Samples;Min_cycle;Max_cycle;Signal;HPM_P1;HPM_P2
2022/12/04 00:02:24;;;;;;;37.40;15.10;;;;;;;;;;10410949;28;20226;-81
2022/12/04 00:07:25;;;;;;;48.95;15.02;;;;;;;;;;10413013;28;20271;-81
2022/12/04 00:12:26;;;;;;;44.30;14.40;;;;;;;;;;10396190;28;20221;-80
2022/12/04 00:17:28;;;;;;;48.13;14.73;;;;;;;;;;10413389;28;20241;-81
2022/12/04 00:22:29;;;;;;;42.70;15.00;;;;;;;;;;10428395;28;20257;-81
2022/12/04 00:27:30;;;;;;;50.55;15.25;;;;;;;;;;10412940;28;20223;-81
2022/12/04 00:32:31;;;;;;;40.83;15.40;;;;;;;;;;10390258;28;21247;-80
2022/12/04 00:37:32;;;;;;;43.50;15.10;;;;;;;;;;10422441;28;20214;-81
2022/12/04 00:42:33;;;;;;;42.43;14.33;;;;;;;;;;10416416;28;20236;-81
2022/12/04 00:47:34;;;;;;;32.07;14.10;;;;;;;;;;10412075;28;20687;-80
2022/12/04 00:52:35;;;;;;;45.72;14.88;;;;;;;;;;10411027;28;20219;-81
2022/12/04 00:57:36;;;;;;;49.42;16.60;;;;;;;;;;10421864;28;20249;-80
2022/12/04 01:02:38;;;;;;;44.42;15.80;;;;;;;;;;10405590;28;20214;-81
2022/12/04 01:07:39;;;;;;;42.80;13.65;;;;;;;;;;10410951;28;20216;-81
2022/12/04 01:12:40;;;;;;;41.53;16.10;;;;;;;;;;10402265;28;20253;-80
2022/12/04 01:17:41;;;;;;;35.22;13.65;;;;;;;;;;10418763;28;20229;-80
2022/12/04 01:22:42;;;;;;;46.13;15.23;;;;;;;;;;10413110;28;20895;-81
2022/12/04 01:27:43;;;;;;;44.67;15.60;;;;;;;;;;10406678;28;20309;-80
2022/12/04 01:32:44;;;;;;;46.60;15.50;;;;;;;;;;10386764;28;20219;-81
2022/12/04 01:37:45;;;;;;;45.40;16.00;;;;;;;;;;10430564;28;20214;-81
2022/12/04 01:42:46;;;;;;;53.10;16.83;;;;;;;;;;10429021;28;20277;-80
2022/12/04 01:47:47;;;;;;;39.67;15.00;;;;;;;;;;10430060;28;20249;-81
2022/12/04 01:52:49;;;;;;;37.60;14.80;;;;;;;;;;10428208;28;20226;-81
2022/12/04 01:57:50;;;;;;;40.80;14.60;;;;;;;;;;10407051;28;20222;-80
2022/12/04 02:02:51;;;;;;;46.53;15.87;;;;;;;;;;10406711;28;20718;-81
2022/12/04 02:07:56;;;;;;;44.17;16.08;;;;;;;;;;10426995;28;20308;-80
2022/12/04 02:13:02;;;;;;;38.47;16.08;;;;;;;;;;10406816;28;20225;-81
2022/12/04 02:18:15;;;;;;;47.50;16.73;;;;;;;;;;10428094;28;20679;-81
2022/12/04 02:23:19;;;;;;;36.65;16.48;;;;;;;;;;10388752;28;20287;-80
2022/12/04 02:28:36;;;;;;;49.65;15.73;;;;;;;;;;10405933;28;20217;-80
2022/12/04 02:33:44;;;;;;;47.60;15.07;;;;;;;;;;10428928;28;20789;-81
2022/12/04 02:38:51;;;;;;;47.97;17.05;;;;;;;;;;10410499;28;20246;-80
2022/12/04 02:43:55;;;;;;;38.92;14.95;;;;;;;;;;10414813;28;20212;-80
2022/12/04 02:48:58;;;;;;;42.30;16.35;;;;;;;;;;10397253;28;20219;-80
2022/12/04 02:54:04;;;;;;;42.42;16.67;;;;;;;;;;10424932;28;20238;-81
2022/12/04 02:59:11;;;;;;;41.47;16.90;;;;;;;;;;10393167;28;20223;-81
2022/12/04 03:04:18;;;;;;;46.65;17.63;;;;;;;;;;10406819;28;20215;-80
2022/12/04 03:09:24;;;;;;;41.90;17.37;;;;;;;;;;10417131;28;20211;-80
2022/12/04 03:14:29;;;;;;;53.30;18.13;;;;;;;;;;10384466;28;20214;-81
2022/12/04 03:19:36;;;;;;;46.78;18.58;;;;;;;;;;10410561;28;20243;-80
2022/12/04 03:24:38;;;;;;;42.00;17.88;;;;;;;;;;10423353;28;20219;-80
2022/12/04 03:29:48;;;;;;;42.90;16.45;;;;;;;;;;10412053;28;21045;-81
2022/12/04 03:35:02;;;;;;;47.50;17.57;;;;;;;;;;10424921;28;20245;-81
2022/12/04 03:40:07;;;;;;;47.63;15.27;;;;;;;;;;10458520;28;20214;-80
2022/12/04 03:45:14;;;;;;;51.77;16.00;;;;;;;;;;10457284;28;20218;-79
2022/12/04 03:50:17;;;;;;;50.03;17.50;;;;;;;;;;10395435;28;20202;-80
2022/12/04 03:55:18;;;;;;;52.40;17.90;;;;;;;;;;10416294;28;20189;-80
2022/12/04 04:00:22;;;;;;;50.13;17.83;;;;;;;;;;10418865;28;20202;-80
2022/12/04 04:05:25;;;;;;;49.00;16.77;;;;;;;;;;10430598;28;20230;-80
2022/12/04 04:10:26;;;;;;;53.13;16.70;;;;;;;;;;10426182;28;20231;-80
2022/12/04 04:26:11;;;;;;;50.40;18.25;;;;;;;;;;10426193;28;20230;-81
2022/12/04 04:31:27;;;;;;;48.50;16.77;;;;;;;;;;10412060;28;20743;-80
2022/12/04 04:36:39;;;;;;;40.10;17.20;;;;;;;;;;10422482;28;20665;-81
2022/12/04 04:41:50;;;;;;;48.08;16.80;;;;;;;;;;10401816;28;20215;-80
2022/12/04 04:46:54;;;;;;;53.23;18.43;;;;;;;;;;10416515;28;20215;-81
2022/12/04 04:51:56;;;;;;;47.87;17.70;;;;;;;;;;10432325;28;20261;-80
2022/12/04 04:56:57;;;;;;;37.55;16.63;;;;;;;;;;10387737;28;20222;-81
2022/12/04 05:01:58;;;;;;;43.13;17.50;;;;;;;;;;10396195;28;20221;-80
2022/12/04 05:06:59;;;;;;;44.58;16.90;;;;;;;;;;10386301;28;20771;-80
2022/12/04 05:12:00;;;;;;;50.92;19.83;;;;;;;;;;10410117;28;20219;-81
2022/12/04 05:17:01;;;;;;;58.27;18.47;;;;;;;;;;10397866;28;20217;-80
2022/12/04 05:22:02;;;;;;;53.90;19.92;;;;;;;;;;10428532;28;20218;-81
2022/12/04 05:27:03;;;;;;;55.97;19.27;;;;;;;;;;10406288;28;20248;-81
2022/12/04 05:32:04;;;;;;;67.60;19.10;;;;;;;;;;10420350;28;20211;-82
2022/12/04 05:37:05;;;;;;;44.97;17.90;;;;;;;;;;10435885;28;20350;-80
2022/12/04 05:42:08;;;;;;;47.47;18.03;;;;;;;;;;10450120;28;20314;-81
2022/12/04 05:47:09;;;;;;;54.65;19.70;;;;;;;;;;10427257;28;20214;-80
2022/12/04 05:52:10;;;;;;;55.05;18.95;;;;;;;;;;10398558;28;20225;-81
2022/12/04 05:57:11;;;;;;;53.13;17.50;;;;;;;;;;10420736;28;20234;-80
2022/12/04 06:02:12;;;;;;;56.50;19.52;;;;;;;;;;10421968;28;20222;-80
2022/12/04 06:07:13;;;;;;;55.13;17.03;;;;;;;;;;10402352;28;20207;-81
2022/12/04 06:12:14;;;;;;;46.58;17.48;;;;;;;;;;10413463;28;20228;-80
2022/12/04 06:17:15;;;;;;;58.07;19.10;;;;;;;;;;10398959;28;20206;-79
2022/12/04 06:22:16;;;;;;;55.83;17.83;;;;;;;;;;10415803;28;20215;-81
2022/12/04 06:27:17;;;;;;;54.03;19.50;;;;;;;;;;10401330;28;21089;-80
2022/12/04 06:32:19;;;;;;;52.83;17.38;;;;;;;;;;10386696;28;20939;-81
2022/12/04 06:37:20;;;;;;;51.50;18.67;;;;;;;;;;10377880;28;20247;-80
2022/12/04 06:42:22;;;;;;;50.72;17.70;;;;;;;;;;10380660;28;20817;-80
2022/12/04 06:47:23;;;;;;;50.90;17.25;;;;;;;;;;10379261;28;20272;-80
2022/12/04 06:52:24;;;;;;;51.23;18.93;;;;;;;;;;10376189;28;20215;-79
2022/12/04 06:57:25;;;;;;;49.00;18.60;;;;;;;;;;10375908;28;20651;-79
2022/12/04 07:02:26;;;;;;;52.38;18.27;;;;;;;;;;10387920;28;20250;-79
2022/12/04 07:07:27;;;;;;;49.05;18.35;;;;;;;;;;10385669;28;20211;-79
2022/12/04 07:12:28;;;;;;;45.28;18.33;;;;;;;;;;10396051;28;20306;-79
2022/12/04 07:17:29;;;;;;;63.10;18.47;;;;;;;;;;10396941;28;20259;-80
2022/12/04 07:22:30;;;;;;;54.40;19.17;;;;;;;;;;10386482;28;20227;-79
2022/12/04 07:27:31;;;;;;;46.22;16.83;;;;;;;;;;10375979;28;20302;-79
2022/12/04 07:32:32;;;;;;;46.50;17.80;;;;;;;;;;10372249;28;20703;-80
2022/12/04 07:37:35;;;;;;;54.57;17.73;;;;;;;;;;10432123;28;20358;-79
2022/12/04 07:42:36;;;;;;;47.00;16.15;;;;;;;;;;10420854;28;20250;-80
2022/12/04 07:47:37;;;;;;;58.73;18.90;;;;;;;;;;10452771;28;20218;-79
2022/12/04 07:52:38;;;;;;;47.90;18.55;;;;;;;;;;10424473;28;20215;-80
2022/12/04 07:57:39;;;;;;;49.08;17.95;;;;;;;;;;10426460;28;20223;-80
2022/12/04 08:02:41;;;;;;;45.50;17.77;;;;;;;;;;10416246;28;20223;-79
2022/12/04 08:07:42;;;;;;;51.60;18.33;;;;;;;;;;10402751;28;20246;-78
2022/12/04 08:12:43;;;;;;;59.30;17.67;;;;;;;;;;10410551;28;20313;-79
2022/12/04 08:17:44;;;;;;;54.28;17.45;;;;;;;;;;10406799;28;20676;-79
2022/12/04 08:22:45;;;;;;;49.70;17.33;;;;;;;;;;10406874;28;20376;-79
2022/12/04 08:27:46;;;;;;;57.33;17.75;;;;;;;;;;10401180;28;20214;-77
2022/12/04 08:32:48;;;;;;;49.70;18.08;;;;;;;;;;10410904;28;20227;-79
2022/12/04 08:37:49;;;;;;;45.58;16.73;;;;;;;;;;10426439;28;20848;-78
2022/12/04 08:42:50;;;;;;;48.28;17.95;;;;;;;;;;10411323;28;20956;-79
2022/12/04 08:47:51;;;;;;;51.33;17.30;;;;;;;;;;10411139;28;20215;-79
2022/12/04 08:52:52;;;;;;;49.93;16.13;;;;;;;;;;10420457;28;20219;-78
2022/12/04 08:57:53;;;;;;;46.05;18.23;;;;;;;;;;10422172;28;20225;-78
2022/12/04 09:02:54;;;;;;;48.60;16.80;;;;;;;;;;10429882;28;20265;-79
2022/12/04 09:07:56;;;;;;;52.55;18.10;;;;;;;;;;10418922;28;20667;-79
2022/12/04 09:12:57;;;;;;;45.83;16.85;;;;;;;;;;10425682;28;20281;-79
2022/12/04 09:17:58;;;;;;;52.33;17.25;;;;;;;;;;10411696;28;20272;-79
2022/12/04 09:22:59;;;;;;;47.47;16.80;;;;;;;;;;10426010;28;20214;-78
2022/12/04 09:28:00;;;;;;;62.42;17.40;;;;;;;;;;10387478;28;20269;-79
2022/12/04 09:33:01;;;;;;;47.75;18.38;;;;;;;;;;10406164;28;21315;-79
2022/12/04 09:38:02;;;;;;;51.25;17.77;;;;;;;;;;10422876;28;20222;-79
2022/12/04 09:43:16;;;;;;;52.13;18.35;;;;;;;;;;10409553;28;21182;-78
2022/12/04 09:48:19;;;;;;;51.60;18.25;;;;;;;;;;10419892;28;20242;-79
2022/12/04 09:53:36;;;;;;;57.03;19.48;;;;;;;;;;10417899;28;20246;-79
2022/12/04 09:58:49;;;;;;;56.42;17.00;;;;;;;;;;10393667;28;20237;-78
2022/12/04 10:03:50;;;;;;;53.63;18.27;;;;;;;;;;10409311;28;20218;-79
2022/12/04 10:09:02;;;;;;;55.50;19.20;;;;;;;;;;10422962;28;20218;-77
2022/12/04 10:14:04;;;;;;;50.25;18.52;;;;;;;;;;10395732;28;20215;-77
2022/12/04 10:19:10;;;;;;;53.42;19.65;;;;;;;;;;10407711;28;20241;-77
2022/12/04 10:24:30;;;;;;;54.60;19.65;;;;;;;;;;10397980;28;20302;-77
2022/12/04 10:29:34;;;;;;;46.10;17.75;;;;;;;;;;10406235;28;20211;-76
2022/12/04 10:34:36;;;;;;;54.53;16.63;;;;;;;;;;10392473;28;20234;-76
2022/12/04 10:39:41;;;;;;;51.30;18.70;;;;;;;;;;10419821;28;20279;-77
2022/12/04 10:44:42;;;;;;;67.55;18.38;;;;;;;;;;10395422;28;20800;-77
2022/12/04 10:49:43;;;;;;;56.03;18.23;;;;;;;;;;10419510;28;20709;-77
2022/12/04 10:54:47;;;;;;;46.35;16.73;;;;;;;;;;10382105;28;20229;-76
2022/12/04 10:59:53;;;;;;;52.40;19.25;;;;;;;;;;10414160;28;20219;-76
2022/12/04 11:04:59;;;;;;;50.03;19.27;;;;;;;;;;10402495;28;20217;-78
2022/12/04 11:10:02;;;;;;;51.33;19.52;;;;;;;;;;10377034;28;20660;-76
2022/12/04 11:15:06;;;;;;;52.17;16.42;;;;;;;;;;10395117;28;20391;-77
2022/12/04 11:20:08;;;;;;;59.83;18.75;;;;;;;;;;10409660;28;20192;-77
2022/12/04 11:25:15;;;;;;;56.75;18.45;;;;;;;;;;10413173;28;20222;-77
2022/12/04 11:30:19;;;;;;;48.45;16.83;;;;;;;;;;10403965;28;20191;-78
2022/12/04 11:35:22;;;;;;;49.15;17.38;;;;;;;;;;10424700;28;20215;-77
2022/12/04 11:40:25;;;;;;;43.50;16.65;;;;;;;;;;10409636;28;20218;-77
2022/12/04 11:45:26;;;;;;;47.33;17.83;;;;;;;;;;10421376;28;20231;-77
2022/12/04 11:50:43;;;;;;;56.08;17.60;;;;;;;;;;10423294;28;20227;-78
2022/12/04 11:55:52;;;;;;;48.50;17.73;;;;;;;;;;10411993;28;20298;-77
2022/12/04 12:01:19;;;;;;;57.00;18.75;;;;;;;;;;10418257;28;20310;-77
2022/12/04 12:06:23;;;;;;;52.55;16.65;;;;;;;;;;10402775;28;20199;-78
2022/12/04 12:11:32;;;;;;;60.20;18.23;;;;;;;;;;10420340;28;20223;-78
2022/12/04 12:16:36;;;;;;;63.05;18.58;;;;;;;;;;10397005;28;20315;-77
2022/12/04 12:21:42;;;;;;;41.83;16.75;;;;;;;;;;10416400;28;20210;-78
2022/12/04 12:26:55;;;;;;;46.65;18.60;;;;;;;;;;10422238;28;20314;-78
2022/12/04 12:32:05;;;;;;;53.78;18.00;;;;;;;;;;10395320;28;20216;-77
2022/12/04 12:37:26;;;;;;;45.00;17.25;;;;;;;;;;10382225;28;20231;-78
2022/12/04 12:42:30;;;;;;;45.40;16.77;;;;;;;;;;10375668;28;20246;-78
2022/12/04 12:47:36;;;;;;;57.55;17.80;;;;;;;;;;10375224;28;20236;-78
2022/12/04 12:52:45;;;;;;;45.85;17.40;;;;;;;;;;10377088;28;20212;-78
2022/12/04 12:57:56;;;;;;;58.25;17.27;;;;;;;;;;10368956;28;20310;-78
2022/12/04 13:02:57;;;;;;;45.00;17.30;;;;;;;;;;10371094;28;20719;-78
2022/12/04 13:08:17;;;;;;;55.20;16.25;;;;;;;;;;10376556;28;20215;-81
2022/12/04 13:13:29;;;;;;;43.03;17.02;;;;;;;;;;10383821;28;20230;-78
2022/12/04 13:18:32;;;;;;;53.97;17.70;;;;;;;;;;10376347;28;20656;-78
2022/12/04 13:23:39;;;;;;;66.28;21.17;;;;;;;;;;10378157;28;20358;-78
2022/12/04 13:28:54;;;;;;;52.57;20.83;;;;;;;;;;10383326;28;20215;-77
2022/12/04 13:34:11;;;;;;;59.60;19.90;;;;;;;;;;10394158;28;20295;-78
2022/12/04 13:39:21;;;;;;;62.13;18.20;;;;;;;;;;10416254;28;20217;-79
2022/12/04 13:44:23;;;;;;;58.35;17.85;;;;;;;;;;10402432;28;20219;-78
2022/12/04 13:49:26;;;;;;;43.50;17.50;;;;;;;;;;10415569;28;20219;-78
2022/12/04 13:54:36;;;;;;;52.95;18.33;;;;;;;;;;10413913;28;20617;-78
2022/12/04 13:59:39;;;;;;;60.10;18.23;;;;;;;;;;10411210;28;20215;-78
2022/12/04 14:04:45;;;;;;;61.38;19.60;;;;;;;;;;10423648;28;20289;-78
2022/12/04 14:09:48;;;;;;;48.37;17.23;;;;;;;;;;10389099;28;20225;-79
2022/12/04 14:14:54;;;;;;;44.50;16.95;;;;;;;;;;10421905;28;20222;-79
2022/12/04 14:19:57;;;;;;;58.53;18.02;;;;;;;;;;10417494;28;20227;-78
2022/12/04 14:25:05;;;;;;;56.22;18.58;;;;;;;;;;10401664;28;20251;-78
2022/12/04 14:30:18;;;;;;;62.95;18.08;;;;;;;;;;10376588;28;20214;-79
2022/12/04 14:35:23;;;;;;;64.22;18.75;;;;;;;;;;10400831;28;20278;-78
2022/12/04 14:40:26;;;;;;;51.70;18.23;;;;;;;;;;10413860;28;20284;-78
2022/12/04 14:45:36;;;;;;;48.15;18.17;;;;;;;;;;10412467;28;20280;-79
2022/12/04 14:50:46;;;;;;;53.97;19.40;;;;;;;;;;10413221;28;20627;-79
2022/12/04 14:55:47;;;;;;;67.43;18.23;;;;;;;;;;10413528;28;20222;-79
2022/12/04 15:00:49;;;;;;;62.17;19.88;;;;;;;;;;10392925;28;20222;-79
2022/12/04 15:05:51;;;;;;;65.78;19.88;;;;;;;;;;10410502;28;20324;-79
2022/12/04 15:16:19;;;;;;;61.40;18.67;;;;;;;;;;10411512;28;20224;-79
2022/12/04 15:21:20;;;;;;;66.35;20.77;;;;;;;;;;10417465;28;20215;-79
2022/12/04 15:26:23;;;;;;;58.85;19.02;;;;;;;;;;10396351;28;20223;-78
2022/12/04 15:31:27;;;;;;;64.15;18.55;;;;;;;;;;10355296;28;20219;-77
2022/12/04 15:36:34;;;;;;;69.70;18.55;;;;;;;;;;10369207;28;20230;-79
2022/12/04 15:41:36;;;;;;;67.45;18.50;;;;;;;;;;10384042;28;20682;-77
2022/12/04 15:46:37;;;;;;;58.08;16.63;;;;;;;;;;10402093;28;20203;-77
2022/12/04 15:51:38;;;;;;;49.25;18.48;;;;;;;;;;10391040;28;20219;-77
2022/12/04 15:56:39;;;;;;;59.13;20.15;;;;;;;;;;10396304;28;20710;-77
2022/12/04 16:01:40;;;;;;;49.33;17.67;;;;;;;;;;10400044;28;20216;-79
2022/12/04 16:06:45;;;;;;;39.83;16.38;;;;;;;;;;10401594;28;20361;-78
2022/12/04 16:11:46;;;;;;;51.03;17.73;;;;;;;;;;10388337;28;20833;-77
2022/12/04 16:16:48;;;;;;;56.35;17.50;;;;;;;;;;10419244;28;20310;-79
2022/12/04 16:21:50;;;;;;;55.17;18.98;;;;;;;;;;10419736;28;20219;-79
2022/12/04 16:26:53;;;;;;;52.60;17.30;;;;;;;;;;10418688;28;20281;-78
2022/12/04 16:31:54;;;;;;;51.20;16.73;;;;;;;;;;10406763;28;20223;-78
2022/12/04 16:36:55;;;;;;;53.60;17.98;;;;;;;;;;10412406;28;20249;-78
2022/12/04 16:41:56;;;;;;;51.05;15.82;;;;;;;;;;10394973;28;20317;-78
2022/12/04 16:46:58;;;;;;;44.10;14.43;;;;;;;;;;10419755;28;20703;-78
2022/12/04 16:51:59;;;;;;;54.28;17.63;;;;;;;;;;10392666;28;20249;-76
2022/12/04 16:57:00;;;;;;;47.03;15.90;;;;;;;;;;10410037;28;20328;-78
2022/12/04 17:02:01;;;;;;;54.90;18.60;;;;;;;;;;10399564;28;20215;-77
2022/12/04 17:07:02;;;;;;;47.75;16.58;;;;;;;;;;10397140;28;20210;-78
2022/12/04 17:12:03;;;;;;;55.03;16.85;;;;;;;;;;10407215;28;20246;-78
2022/12/04 17:17:04;;;;;;;47.58;16.13;;;;;;;;;;10410768;28;20214;-79
2022/12/04 17:22:06;;;;;;;46.78;17.27;;;;;;;;;;10399722;28;20221;-77
2022/12/04 17:27:11;;;;;;;47.40;15.98;;;;;;;;;;10416223;28;21067;-78
2022/12/04 17:32:12;;;;;;;46.88;15.48;;;;;;;;;;10415894;28;20222;-78
2022/12/04 17:37:14;;;;;;;46.55;17.30;;;;;;;;;;10414853;28;20301;-76
2022/12/04 17:42:16;;;;;;;47.33;16.30;;;;;;;;;;10407901;28;20218;-77
2022/12/04 17:47:17;;;;;;;44.20;16.52;;;;;;;;;;10417278;28;20215;-78
2022/12/04 17:52:21;;;;;;;49.22;15.30;;;;;;;;;;10387010;28;20311;-78
2022/12/04 17:57:22;;;;;;;53.05;16.58;;;;;;;;;;10386673;28;20203;-78
2022/12/04 18:02:23;;;;;;;46.10;17.08;;;;;;;;;;10361822;28;20219;-77
2022/12/04 18:07:24;;;;;;;43.50;16.85;;;;;;;;;;10367947;28;20204;-78
2022/12/04 18:12:25;;;;;;;44.70;15.30;;;;;;;;;;10358785;28;20222;-78
2022/12/04 18:17:26;;;;;;;48.40;17.10;;;;;;;;;;10364064;28;20430;-77
2022/12/04 18:22:27;;;;;;;54.38;17.80;;;;;;;;;;10419922;28;20222;-78
2022/12/04 18:27:28;;;;;;;44.00;15.73;;;;;;;;;;10405844;28;20593;-77
2022/12/04 18:32:29;;;;;;;47.45;17.67;;;;;;;;;;10391418;28;20288;-77
2022/12/04 18:37:32;;;;;;;46.88;15.68;;;;;;;;;;10403968;28;20215;-78
2022/12/04 18:42:33;;;;;;;56.78;19.08;;;;;;;;;;10407073;28;20247;-78
2022/12/04 18:47:35;;;;;;;51.95;16.08;;;;;;;;;;10409982;28;20213;-77
2022/12/04 18:52:37;;;;;;;48.28;16.05;;;;;;;;;;10408686;28;20312;-77
2022/12/04 18:57:39;;;;;;;56.10;16.90;;;;;;;;;;10397506;28;20210;-77
2022/12/04 19:02:40;;;;;;;49.13;15.15;;;;;;;;;;10409890;28;20211;-77
2022/12/04 19:07:41;;;;;;;47.97;15.67;;;;;;;;;;10400094;28;20722;-77
2022/12/04 19:12:42;;;;;;;42.83;16.23;;;;;;;;;;10384868;28;20274;-78
2022/12/04 19:17:43;;;;;;;56.55;16.33;;;;;;;;;;10404949;28;20292;-77
2022/12/04 19:22:44;;;;;;;47.20;16.08;;;;;;;;;;10417481;28;20268;-78
2022/12/04 19:27:45;;;;;;;46.50;16.75;;;;;;;;;;10413495;28;20310;-78
2022/12/04 19:32:46;;;;;;;37.60;14.70;;;;;;;;;;10416108;28;20383;-77
2022/12/04 19:37:50;;;;;;;43.65;16.73;;;;;;;;;;10388429;28;20890;-79
2022/12/04 19:42:51;;;;;;;41.13;14.82;;;;;;;;;;10418938;28;20222;-78
2022/12/04 19:47:52;;;;;;;46.15;15.02;;;;;;;;;;10401835;28;20210;-79
2022/12/04 19:52:53;;;;;;;42.53;14.13;;;;;;;;;;10417031;28;20671;-78
2022/12/04 19:57:54;;;;;;;46.15;14.23;;;;;;;;;;10399337;28;20772;-80
2022/12/04 20:02:56;;;;;;;43.67;16.08;;;;;;;;;;10418450;28;20453;-78
2022/12/04 20:07:57;;;;;;;56.47;16.17;;;;;;;;;;10399306;28;20214;-78
2022/12/04 20:12:58;;;;;;;55.15;14.82;;;;;;;;;;10419890;28;21175;-80
2022/12/04 20:17:59;;;;;;;44.03;14.63;;;;;;;;;;10424603;28;20600;-80
2022/12/04 20:23:00;;;;;;;38.85;14.27;;;;;;;;;;10418363;28;20219;-79
2022/12/04 20:28:01;;;;;;;44.10;13.73;;;;;;;;;;10397321;28;20593;-78
2022/12/04 20:33:02;;;;;;;42.72;13.38;;;;;;;;;;10399553;28;20227;-78
2022/12/04 20:38:04;;;;;;;52.10;14.63;;;;;;;;;;10409935;28;20229;-79
2022/12/04 20:43:05;;;;;;;36.35;14.70;;;;;;;;;;10396617;28;20683;-80
2022/12/04 20:48:06;;;;;;;41.92;14.00;;;;;;;;;;10420930;28;20211;-78
2022/12/04 20:53:07;;;;;;;45.83;14.25;;;;;;;;;;10417978;28;20211;-80
2022/12/04 20:58:08;;;;;;;38.80;13.60;;;;;;;;;;10407193;28;20218;-80
2022/12/04 21:03:09;;;;;;;38.63;13.55;;;;;;;;;;10413739;28;20218;-78
2022/12/04 21:08:10;;;;;;;31.67;12.23;;;;;;;;;;10414850;28;20718;-78
2022/12/04 21:18:31;;;;;;;32.67;12.95;;;;;;;;;;10404219;28;20218;-79
2022/12/04 21:23:34;;;;;;;44.17;13.13;;;;;;;;;;10412957;28;20676;-79
2022/12/04 21:28:35;;;;;;;39.22;14.82;;;;;;;;;;10398970;28;20795;-79
2022/12/04 21:33:36;;;;;;;39.75;13.88;;;;;;;;;;10420698;28;20238;-80
2022/12/04 21:38:38;;;;;;;39.63;14.25;;;;;;;;;;10419581;28;20401;-80
2022/12/04 21:43:39;;;;;;;42.05;13.15;;;;;;;;;;10413855;28;20308;-80
2022/12/04 21:48:40;;;;;;;40.92;14.23;;;;;;;;;;10410369;28;20752;-79
2022/12/04 21:53:41;;;;;;;42.90;14.48;;;;;;;;;;10420141;28;20206;-80
2022/12/04 21:58:42;;;;;;;41.42;13.90;;;;;;;;;;10399468;28;20223;-77
2022/12/04 22:03:44;;;;;;;43.42;14.63;;;;;;;;;;10411911;28;20231;-82
2022/12/04 22:08:45;;;;;;;49.70;14.85;;;;;;;;;;10411547;28;20227;-79
2022/12/04 22:13:46;;;;;;;41.28;14.00;;;;;;;;;;10395178;28;20801;-78
2022/12/04 22:18:47;;;;;;;45.00;15.15;;;;;;;;;;10408656;28;20226;-80
2022/12/04 22:23:48;;;;;;;61.38;15.07;;;;;;;;;;10430751;28;20219;-79
2022/12/04 22:28:50;;;;;;;45.38;14.80;;;;;;;;;;10444279;28;20224;-80
2022/12/04 22:33:52;;;;;;;47.80;15.77;;;;;;;;;;10393891;28;21267;-78
2022/12/04 22:38:53;;;;;;;47.17;14.73;;;;;;;;;;10427494;28;20311;-79
2022/12/04 22:43:54;;;;;;;41.75;15.32;;;;;;;;;;10425165;28;20229;-80
2022/12/04 22:48:55;;;;;;;53.97;15.48;;;;;;;;;;10408777;28;20206;-79
2022/12/04 22:53:57;;;;;;;48.45;16.00;;;;;;;;;;10396383;28;20215;-79
2022/12/04 22:58:59;;;;;;;58.33;16.63;;;;;;;;;;10420834;28;20246;-79
2022/12/04 23:04:01;;;;;;;48.00;14.32;;;;;;;;;;10383679;28;20215;-78
2022/12/04 23:09:04;;;;;;;48.58;14.95;;;;;;;;;;10409681;28;20275;-80
2022/12/04 23:14:06;;;;;;;48.70;14.90;;;;;;;;;;10407295;28;20291;-80
2022/12/04 23:19:07;;;;;;;63.65;15.25;;;;;;;;;;10421290;28;20215;-79
2022/12/04 23:24:08;;;;;;;67.57;16.48;;;;;;;;;;10407627;28;20211;-79
2022/12/04 23:29:10;;;;;;;49.85;15.38;;;;;;;;;;10420209;28;20245;-79
2022/12/04 23:34:11;;;;;;;42.08;14.48;;;;;;;;;;10402881;28;20237;-79
2022/12/04 23:39:12;;;;;;;63.55;16.40;;;;;;;;;;10412770;28;20273;-77
2022/12/04 23:44:13;;;;;;;59.55;14.32;;;;;;;;;;10421715;28;20219;-79
2022/12/04 23:49:14;;;;;;;50.53;13.95;;;;;;;;;;10411943;28;20211;-78
2022/12/04 23:54:15;;;;;;;76.30;14.52;;;;;;;;;;10427318;28;20295;-79
2022/12/04 23:59:16;;;;;;;47.83;14.73;;;;;;;;;;10419258;28;20643;-80
